Time;durP1;ratioP1;P1;durP2;ratioP2;P2;SDS_P1;SDS_P2;PMS_P1;PMS_P2;Temp;Humidity;BMP_temperature;BMP_pressure;BME280_temperature;BME280_humidity;BME280_pressure;Samples;Min_cycle;Max_cycle;Signal;HPM_P1;HPM_P2
2023/02/27 00:02:27;;;;;;;4.55;2.20;;;13.50;65.20;;;;;;3901567;30;20059;-63
2023/02/27 00:05:10;;;;;;;2.38;1.48;;;13.50;65.20;;;;;;3913259;30;20426;-63
2023/02/27 00:07:51;;;;;;;2.30;1.75;;;13.50;65.30;;;;;;3926573;30;20236;-64
2023/02/27 00:10:32;;;;;;;6.70;2.00;;;13.50;65.50;;;;;;3926531;30;20428;-64
2023/02/27 00:13:13;;;;;;;4.57;1.77;;;13.50;65.50;;;;;;3915520;30;20137;-64
2023/02/27 00:15:55;;;;;;;6.18;2.53;;;13.40;65.60;;;;;;3915467;30;20051;-64
2023/02/27 00:18:35;;;;;;;4.30;2.00;;;13.40;65.60;;;;;;3926370;30;20055;-64
2023/02/27 00:21:18;;;;;;;6.53;3.13;;;13.40;65.60;;;;;;3926672;30;20066;-66
2023/02/27 00:23:58;;;;;;;3.05;1.92;;;13.40;65.70;;;;;;3926337;30;20313;-66
2023/02/27 00:26:40;;;;;;;4.33;1.87;;;13.40;65.90;;;;;;3926452;30;20090;-66
2023/02/27 00:29:20;;;;;;;3.03;2.30;;;13.40;65.90;;;;;;3926144;30;20090;-66
2023/02/27 00:32:04;;;;;;;2.38;1.60;;;13.40;65.90;;;;;;3926646;30;20063;-66
2023/02/27 00:34:45;;;;;;;3.65;1.80;;;13.30;66.00;;;;;;3911939;30;20067;-66
2023/02/27 00:37:28;;;;;;;3.53;1.63;;;13.40;66.00;;;;;;3911068;30;20761;-66
2023/02/27 00:40:12;;;;;;;3.65;1.92;;;13.40;66.70;;;;;;3901023;30;20071;-66
2023/02/27 00:42:53;;;;;;;2.20;2.00;;;13.50;66.60;;;;;;3911671;30;20067;-66
2023/02/27 00:45:34;;;;;;;3.30;1.65;;;13.60;66.20;;;;;;3914632;30;20064;-66
2023/02/27 00:48:15;;;;;;;3.90;2.03;;;13.70;65.90;;;;;;3908423;30;20059;-66
2023/02/27 00:50:56;;;;;;;4.28;2.13;;;13.70;65.40;;;;;;3914295;30;20052;-66
2023/02/27 00:53:38;;;;;;;4.60;2.15;;;13.70;65.20;;;;;;3914384;30;20059;-66
2023/02/27 00:56:19;;;;;;;4.43;2.53;;;13.60;65.00;;;;;;3915749;30;20059;-66
2023/02/27 00:59:00;;;;;;;2.97;1.63;;;13.60;65.30;;;;;;3917913;30;20059;-65
2023/02/27 01:01:40;;;;;;;3.58;1.50;;;13.60;66.00;;;;;;3928837;30;20059;-65
2023/02/27 01:04:21;;;;;;;3.97;1.77;;;13.70;66.70;;;;;;3928990;30;20064;-65
2023/02/27 01:07:03;;;;;;;2.50;1.35;;;13.90;66.50;;;;;;3910215;30;20060;-65
2023/02/27 01:09:45;;;;;;;2.42;1.73;;;14.00;66.10;;;;;;3927216;30;20067;-65
2023/02/27 01:12:27;;;;;;;2.78;1.80;;;14.10;65.70;;;;;;3917893;30;20058;-65
2023/02/27 01:15:10;;;;;;;3.17;1.73;;;14.20;65.30;;;;;;3929053;30;20067;-66
2023/02/27 01:17:51;;;;;;;6.28;1.95;;;14.30;65.90;;;;;;3918160;30;20153;-66
2023/02/27 01:20:33;;;;;;;4.25;1.73;;;14.40;64.60;;;;;;3903552;30;20519;-66
2023/02/27 01:23:14;;;;;;;2.27;1.80;;;14.40;64.30;;;;;;3916334;30;20261;-66
2023/02/27 01:25:57;;;;;;;3.08;2.33;;;14.50;64.20;;;;;;3917728;30;20063;-66
2023/02/27 01:28:37;;;;;;;3.88;2.42;;;14.50;64.20;;;;;;3928572;30;20062;-65
2023/02/27 01:31:18;;;;;;;5.38;2.03;;;14.50;64.20;;;;;;3928895;30;20626;-66
2023/02/27 01:33:59;;;;;;;3.78;2.33;;;14.60;64.10;;;;;;3917703;30;20055;-66
2023/02/27 01:36:40;;;;;;;4.97;2.00;;;14.60;64.00;;;;;;3928384;30;20059;-66
2023/02/27 01:39:21;;;;;;;5.00;2.28;;;14.60;63.80;;;;;;3928205;30;20794;-66
2023/02/27 01:42:04;;;;;;;4.85;2.95;;;14.70;63.80;;;;;;3928335;30;20051;-65
2023/02/27 01:45:22;;;;;;;3.72;2.50;;;14.60;63.70;;;;;;3927749;30;20059;-66
2023/02/27 01:48:12;;;;;;;3.38;2.00;;;14.60;63.20;;;;;;3928282;30;20063;-66
2023/02/27 01:50:56;;;;;;;6.18;2.45;;;14.70;63.70;;;;;;3917521;30;20133;-67
2023/02/27 01:53:41;;;;;;;2.95;1.73;;;14.70;63.70;;;;;;3928326;30;20059;-67
2023/02/27 01:56:27;;;;;;;2.70;1.92;;;14.70;63.40;;;;;;3926451;30;20059;-67
2023/02/27 01:59:11;;;;;;;3.13;2.38;;;14.80;63.40;;;;;;3917295;30;20083;-64
2023/02/27 02:01:53;;;;;;;3.72;2.17;;;14.80;64.20;;;;;;3917309;30;20071;-64
2023/02/27 02:04:36;;;;;;;2.70;1.90;;;14.80;63.50;;;;;;3917142;30;20059;-64
2023/02/27 02:07:19;;;;;;;4.10;2.00;;;14.80;63.40;;;;;;3912354;30;20055;-67
2023/02/27 02:10:01;;;;;;;5.38;2.33;;;14.80;63.30;;;;;;3912606;30;20071;-66
2023/02/27 02:12:45;;;;;;;5.82;2.10;;;14.80;63.20;;;;;;3913558;30;20072;-66
2023/02/27 02:15:33;;;;;;;2.47;1.92;;;14.90;63.40;;;;;;3912449;30;20052;-67
2023/02/27 02:18:26;;;;;;;2.50;1.85;;;14.90;63.20;;;;;;3915258;30;20145;-66
2023/02/27 02:21:43;;;;;;;3.42;1.70;;;15.00;62.80;;;;;;3927632;30;20063;-66
2023/02/27 02:24:54;;;;;;;4.00;2.05;;;15.00;62.50;;;;;;3916543;30;20059;-66
2023/02/27 02:27:49;;;;;;;4.85;1.75;;;15.00;62.50;;;;;;3913674;30;20130;-66
2023/02/27 02:31:01;;;;;;;2.38;1.35;;;15.00;63.60;;;;;;3918494;30;20059;-66
2023/02/27 02:34:16;;;;;;;4.68;1.88;;;15.00;62.50;;;;;;3927231;30;20075;-67
2023/02/27 02:37:53;;;;;;;4.70;1.80;;;14.90;62.70;;;;;;3927793;30;20839;-67
2023/02/27 02:40:43;;;;;;;4.57;1.70;;;14.90;62.80;;;;;;3866850;30;20143;-67
2023/02/27 02:43:29;;;;;;;5.30;1.50;;;14.90;63.10;;;;;;3925570;30;20524;-67
2023/02/27 02:46:16;;;;;;;3.95;1.50;;;14.90;62.80;;;;;;3916232;30;20067;-67
2023/02/27 02:49:03;;;;;;;4.15;1.40;;;14.90;62.80;;;;;;3927047;30;20095;-67
2023/02/27 02:51:53;;;;;;;3.15;1.30;;;15.00;62.80;;;;;;3905649;30;20066;-65
2023/02/27 02:54:41;;;;;;;3.60;1.17;;;15.00;62.50;;;;;;3927388;30;20070;-64
2023/02/27 02:57:30;;;;;;;2.65;1.30;;;15.00;62.50;;;;;;3916366;30;20483;-64
2023/02/27 03:00:16;;;;;;;4.13;1.63;;;15.00;62.40;;;;;;3901886;30;20434;-64
2023/02/27 03:03:06;;;;;;;2.42;1.52;;;15.10;62.40;;;;;;3902117;30;20064;-64
2023/02/27 03:05:52;;;;;;;1.85;1.15;;;15.10;62.30;;;;;;3918444;30;20153;-64
2023/02/27 03:08:39;;;;;;;3.88;1.35;;;15.00;62.20;;;;;;3915768;30;20178;-64
2023/02/27 03:11:22;;;;;;;2.60;1.75;;;15.00;62.20;;;;;;3927000;30;20054;-65
2023/02/27 03:14:10;;;;;;;2.53;1.27;;;15.00;62.50;;;;;;3927316;30;20063;-64
2023/02/27 03:16:55;;;;;;;3.35;1.45;;;15.00;62.50;;;;;;3915990;30;20055;-65
2023/02/27 03:19:44;;;;;;;5.40;1.48;;;14.90;62.70;;;;;;3916071;30;20059;-64
2023/02/27 03:22:29;;;;;;;4.15;1.20;;;14.90;62.90;;;;;;3901789;30;20122;-65
2023/02/27 03:25:13;;;;;;;1.95;1.15;;;14.90;63.80;;;;;;3912816;30;20056;-67
2023/02/27 03:28:03;;;;;;;3.45;1.60;;;14.90;62.90;;;;;;3900936;30;20051;-67
2023/02/27 03:30:50;;;;;;;3.08;1.25;;;14.90;62.90;;;;;;3926940;30;20063;-67
2023/02/27 03:33:35;;;;;;;1.92;1.33;;;14.90;62.80;;;;;;3926870;30;20063;-67
2023/02/27 03:36:26;;;;;;;3.00;1.10;;;14.90;62.90;;;;;;3915183;30;20069;-67
2023/02/27 03:39:14;;;;;;;4.82;1.30;;;14.80;62.80;;;;;;3915913;30;20532;-67
2023/02/27 03:42:03;;;;;;;3.15;1.55;;;14.80;62.70;;;;;;3915542;30;20190;-67
2023/02/27 03:45:27;;;;;;;3.08;1.27;;;14.80;62.70;;;;;;3925212;30;20132;-67
2023/02/27 03:48:10;;;;;;;1.73;1.25;;;14.80;63.00;;;;;;3915941;30;20141;-67
2023/02/27 03:50:51;;;;;;;3.28;1.50;;;14.80;63.10;;;;;;3926905;30;20059;-68
2023/02/27 03:53:36;;;;;;;1.60;1.35;;;14.80;63.00;;;;;;3925823;30;20059;-68
2023/02/27 03:56:21;;;;;;;5.05;1.58;;;14.80;63.00;;;;;;3926317;30;20055;-65
2023/02/27 03:59:02;;;;;;;3.50;1.13;;;14.80;63.00;;;;;;3915405;30;20063;-65
2023/02/27 04:01:44;;;;;;;3.53;1.02;;;14.80;63.20;;;;;;3925790;30;20079;-65
2023/02/27 04:04:27;;;;;;;;;;;14.80;63.20;;;;;;3916150;30;20055;-65
2023/02/27 04:07:31;;;;;;;3.80;1.40;;;14.80;63.30;;;;;;3911264;30;19934;-66
2023/02/27 04:10:32;;;;;;;2.28;0.93;;;14.90;63.30;;;;;;3917153;30;20059;-65
2023/02/27 04:13:43;;;;;;;4.95;1.42;;;14.90;62.90;;;;;;3911300;30;20063;-67
2023/02/27 04:16:45;;;;;;;1.73;1.23;;;14.90;62.80;;;;;;3922501;30;20059;-67
2023/02/27 04:19:53;;;;;;;3.25;1.48;;;14.80;62.80;;;;;;3925722;30;20047;-67
2023/02/27 04:22:38;;;;;;;2.67;1.50;;;14.80;62.70;;;;;;3926032;30;20138;-65
2023/02/27 04:25:45;;;;;;;2.95;1.33;;;14.80;63.30;;;;;;3925268;30;20531;-66
2023/02/27 04:28:34;;;;;;;1.92;1.20;;;14.80;63.30;;;;;;3911671;30;20071;-65
2023/02/27 04:31:21;;;;;;;2.47;1.67;;;14.90;63.20;;;;;;3911905;30;20073;-66
2023/02/27 04:34:10;;;;;;;5.60;1.48;;;14.90;63.70;;;;;;3911564;30;20063;-66
2023/02/27 04:37:00;;;;;;;1.67;1.50;;;15.00;62.70;;;;;;3925832;30;20059;-65
2023/02/27 04:39:44;;;;;;;2.53;1.23;;;15.10;62.30;;;;;;3925825;30;20163;-65
2023/02/27 04:42:28;;;;;;;1.92;1.23;;;15.20;62.10;;;;;;3924989;30;20523;-65
2023/02/27 04:45:13;;;;;;;4.32;1.30;;;15.20;62.00;;;;;;3925788;30;20055;-65
2023/02/27 04:48:00;;;;;;;3.38;1.20;;;15.20;61.80;;;;;;3926004;30;20059;-65
2023/02/27 04:50:45;;;;;;;6.63;1.30;;;15.20;61.80;;;;;;3926001;30;20055;-65
2023/02/27 04:53:34;;;;;;;4.32;1.10;;;15.20;61.70;;;;;;3925960;30;20055;-65
2023/02/27 04:56:22;;;;;;;3.15;1.20;;;15.20;61.70;;;;;;3911261;30;20528;-64
2023/02/27 04:59:07;;;;;;;5.53;1.70;;;15.30;61.80;;;;;;3925780;30;20433;-65
2023/02/27 05:01:54;;;;;;;1.73;1.00;;;15.40;61.50;;;;;;3926093;30;20071;-65
2023/02/27 05:04:39;;;;;;;3.75;1.20;;;15.40;61.00;;;;;;3924697;30;20055;-65
2023/02/27 05:07:25;;;;;;;1.33;0.98;;;15.50;60.80;;;;;;3926211;30;20059;-67
2023/02/27 05:10:13;;;;;;;3.35;1.17;;;15.50;60.70;;;;;;3926041;30;20059;-67
2023/02/27 05:12:58;;;;;;;3.25;1.30;;;15.60;60.50;;;;;;3926207;30;20067;-67
2023/02/27 05:15:44;;;;;;;3.80;2.42;;;15.70;60.30;;;;;;3900981;30;20052;-67
2023/02/27 05:18:25;;;;;;;2.85;2.08;;;15.60;60.10;;;;;;3923569;30;20055;-67
2023/02/27 05:21:15;;;;;;;4.20;1.30;;;15.60;60.10;;;;;;3926234;30;20133;-67
2023/02/27 05:24:06;;;;;;;1.63;1.02;;;15.60;60.10;;;;;;3925604;30;20186;-67
2023/02/27 05:27:02;;;;;;;1.73;1.02;;;15.60;60.20;;;;;;3925568;30;20488;-67
2023/02/27 05:29:48;;;;;;;3.20;1.60;;;15.50;60.30;;;;;;3926421;30;20059;-67
2023/02/27 05:32:34;;;;;;;2.25;1.30;;;15.60;60.60;;;;;;3928894;30;20757;-64
2023/02/27 05:35:24;;;;;;;7.57;4.28;;;15.60;60.60;;;;;;3928627;30;20059;-64
2023/02/27 05:38:17;;;;;;;7.57;3.38;;;15.60;60.30;;;;;;3914095;30;20067;-64
2023/02/27 05:41:05;;;;;;;5.40;1.60;;;15.60;60.20;;;;;;3914088;30;20064;-64
2023/02/27 05:43:54;;;;;;;2.55;1.40;;;15.60;60.30;;;;;;3903218;30;20067;-64
2023/02/27 05:46:37;;;;;;;2.50;1.17;;;15.70;60.30;;;;;;3913146;30;20110;-64
2023/02/27 05:49:23;;;;;;;3.28;1.60;;;15.70;60.00;;;;;;3913995;30;20519;-64
2023/02/27 05:52:08;;;;;;;2.83;1.60;;;15.70;59.80;;;;;;3916674;30;20141;-64
2023/02/27 05:54:54;;;;;;;2.67;1.30;;;15.70;59.80;;;;;;3928319;30;20195;-65
2023/02/27 05:57:40;;;;;;;4.88;1.63;;;15.70;59.90;;;;;;3928199;30;20059;-65
2023/02/27 06:00:29;;;;;;;2.33;1.85;;;15.70;59.90;;;;;;3928252;30;20198;-65
2023/02/27 06:03:10;;;;;;;2.63;2.05;;;15.70;59.80;;;;;;3927843;30;20582;-67
2023/02/27 06:05:54;;;;;;;3.38;1.92;;;15.70;59.90;;;;;;3912994;30;20121;-68
2023/02/27 06:08:35;;;;;;;3.15;1.98;;;15.70;59.70;;;;;;3912744;30;20064;-64
2023/02/27 06:11:16;;;;;;;5.28;1.90;;;15.70;59.70;;;;;;3925690;30;20852;-64
2023/02/27 06:13:57;;;;;;;2.17;1.80;;;15.60;59.90;;;;;;3928097;30;20145;-62
2023/02/27 06:16:39;;;;;;;2.60;1.42;;;15.60;60.00;;;;;;3927917;30;20488;-64
2023/02/27 06:19:20;;;;;;;5.13;1.58;;;15.70;60.00;;;;;;3913432;30;20625;-65
2023/02/27 06:22:01;;;;;;;2.45;1.25;;;15.70;59.80;;;;;;3917349;30;20065;-64
2023/02/27 06:24:42;;;;;;;3.97;1.65;;;15.70;59.80;;;;;;3927215;30;20055;-64
2023/02/27 06:27:25;;;;;;;3.90;1.65;;;15.70;59.90;;;;;;3927935;30;20150;-65
2023/02/27 06:30:08;;;;;;;3.28;1.63;;;15.70;59.80;;;;;;3927605;30;20562;-64
2023/02/27 06:32:50;;;;;;;4.75;2.22;;;15.70;59.60;;;;;;3927390;30;20419;-65
2023/02/27 06:35:31;;;;;;;3.20;1.55;;;15.70;59.70;;;;;;3928030;30;20116;-65
2023/02/27 06:38:12;;;;;;;2.22;1.50;;;15.70;60.70;;;;;;3927504;30;20075;-65
2023/02/27 06:40:54;;;;;;;3.88;1.58;;;15.60;59.70;;;;;;3927765;30;20520;-65
2023/02/27 06:43:35;;;;;;;3.60;1.52;;;15.70;59.80;;;;;;3916311;30;20543;-65
2023/02/27 06:46:17;;;;;;;2.58;2.20;;;15.70;59.90;;;;;;3916495;30;20506;-65
2023/02/27 06:48:59;;;;;;;5.78;1.63;;;15.70;60.00;;;;;;3927724;30;20047;-64
2023/02/27 06:51:40;;;;;;;3.45;1.50;;;15.60;59.80;;;;;;3926934;30;20145;-64
2023/02/27 06:54:23;;;;;;;2.95;1.50;;;15.70;59.60;;;;;;3920384;30;20071;-65
2023/02/27 06:57:04;;;;;;;6.55;1.85;;;15.70;59.50;;;;;;3926516;30;20499;-64
2023/02/27 06:59:45;;;;;;;3.70;1.37;;;15.60;59.30;;;;;;3911904;30;20429;-64
2023/02/27 07:02:25;;;;;;;3.20;1.63;;;15.60;59.40;;;;;;3920003;30;20330;-64
2023/02/27 07:05:10;;;;;;;2.75;1.30;;;15.50;59.40;;;;;;3913420;30;20051;-64
2023/02/27 07:07:51;;;;;;;6.13;1.50;;;15.40;59.50;;;;;;3919667;30;20185;-64
2023/02/27 07:10:33;;;;;;;2.88;1.48;;;15.30;59.70;;;;;;3927362;30;20515;-64
2023/02/27 07:13:14;;;;;;;5.53;1.90;;;15.30;60.10;;;;;;3912708;30;20134;-63
2023/02/27 07:15:58;;;;;;;4.35;1.50;;;15.30;60.20;;;;;;3901604;30;20100;-63
2023/02/27 07:18:39;;;;;;;4.50;1.80;;;15.40;59.80;;;;;;3903381;30;20133;-64
2023/02/27 07:21:22;;;;;;;3.58;2.70;;;15.40;59.50;;;;;;3913705;30;20792;-64
2023/02/27 07:24:03;;;;;;;5.68;2.75;;;15.40;59.30;;;;;;3930674;30;20063;-64
2023/02/27 07:26:44;;;;;;;3.10;2.13;;;15.40;59.30;;;;;;3919275;30;20067;-64
2023/02/27 07:29:25;;;;;;;4.70;2.05;;;15.40;59.30;;;;;;3923121;30;20059;-64
2023/02/27 07:32:06;;;;;;;3.70;1.80;;;15.50;59.40;;;;;;3926500;30;20063;-64
2023/02/27 07:34:47;;;;;;;5.03;1.30;;;15.50;59.20;;;;;;3926250;30;20078;-64
2023/02/27 07:37:29;;;;;;;4.70;1.27;;;15.50;59.00;;;;;;3926469;30;20503;-64
2023/02/27 07:40:11;;;;;;;2.58;1.17;;;15.50;59.00;;;;;;3925405;30;20055;-64
2023/02/27 07:42:52;;;;;;;2.55;1.27;;;15.50;59.10;;;;;;3926516;30;20082;-63
2023/02/27 07:45:33;;;;;;;5.65;2.05;;;15.60;58.80;;;;;;3915670;30;20198;-63
2023/02/27 07:48:14;;;;;;;2.60;1.33;;;15.60;58.60;;;;;;3926591;30;20280;-63
2023/02/27 07:50:55;;;;;;;3.60;1.05;;;15.70;58.00;;;;;;3926622;30;20611;-63
2023/02/27 07:53:37;;;;;;;4.32;1.33;;;15.70;58.10;;;;;;3926178;30;20055;-64
2023/02/27 07:56:18;;;;;;;2.72;1.20;;;15.70;59.00;;;;;;3926433;30;20059;-64
2023/02/27 07:58:59;;;;;;;3.55;1.30;;;15.60;58.40;;;;;;3926966;30;20075;-64
2023/02/27 08:01:40;;;;;;;4.07;1.60;;;15.50;58.50;;;;;;3926762;30;20152;-64
2023/02/27 08:04:21;;;;;;;3.83;1.40;;;15.50;58.70;;;;;;3926845;30;20063;-63
2023/02/27 08:07:03;;;;;;;4.10;1.35;;;15.50;58.80;;;;;;3926657;30;20204;-63
2023/02/27 08:09:46;;;;;;;3.50;1.27;;;15.60;58.70;;;;;;3926416;30;20144;-68
2023/02/27 08:12:26;;;;;;;4.47;1.45;;;15.70;58.60;;;;;;3914094;30;20072;-61
2023/02/27 08:15:09;;;;;;;4.80;1.15;;;15.60;58.50;;;;;;3914238;30;20637;-61
2023/02/27 08:17:50;;;;;;;2.92;1.60;;;15.60;58.50;;;;;;3918942;30;20508;-61
2023/02/27 08:20:30;;;;;;;3.75;1.25;;;15.60;58.50;;;;;;3918056;30;20073;-61
2023/02/27 08:23:11;;;;;;;3.78;1.20;;;15.70;58.40;;;;;;3914204;30;20405;-61
2023/02/27 08:25:54;;;;;;;2.92;1.40;;;15.60;58.40;;;;;;3923607;30;20848;-62
2023/02/27 08:28:35;;;;;;;4.38;1.52;;;15.60;58.30;;;;;;3923569;30;20071;-61
2023/02/27 08:31:16;;;;;;;6.22;1.02;;;15.50;58.60;;;;;;3923856;30;20062;-62
2023/02/27 08:33:56;;;;;;;4.43;1.20;;;15.50;58.90;;;;;;3909162;30;20072;-62
2023/02/27 08:36:49;;;;;;;1.95;1.13;;;15.60;58.90;;;;;;3918978;30;20079;-62
2023/02/27 08:39:29;;;;;;;2.60;1.20;;;15.60;58.80;;;;;;3923983;30;20504;-61
2023/02/27 08:42:12;;;;;;;3.97;1.52;;;15.60;58.70;;;;;;3923676;30;20313;-62
2023/02/27 08:44:52;;;;;;;3.00;1.67;;;15.60;58.70;;;;;;3919736;30;20129;-61
2023/02/27 08:47:33;;;;;;;3.50;1.20;;;15.60;58.70;;;;;;3916523;30;20063;-61
2023/02/27 08:50:14;;;;;;;4.07;1.40;;;15.60;58.70;;;;;;3923301;30;20415;-61
2023/02/27 08:52:55;;;;;;;5.65;1.38;;;15.50;58.30;;;;;;3917514;30;20145;-61
2023/02/27 08:55:36;;;;;;;5.40;2.00;;;15.50;58.70;;;;;;3923092;30;20085;-61
2023/02/27 08:58:18;;;;;;;3.08;1.30;;;15.40;58.80;;;;;;3922810;30;20515;-62
2023/02/27 09:00:59;;;;;;;4.13;1.40;;;15.40;58.70;;;;;;3920564;30;20109;-61
2023/02/27 09:03:40;;;;;;;6.55;1.52;;;15.40;58.80;;;;;;3923515;30;20327;-61
2023/02/27 09:06:21;;;;;;;3.20;1.38;;;15.30;58.60;;;;;;3918715;30;20106;-61
2023/02/27 09:09:05;;;;;;;4.10;1.40;;;15.30;58.90;;;;;;3916699;30;20109;-62
2023/02/27 09:11:47;;;;;;;3.92;1.73;;;15.30;59.00;;;;;;3921749;30;20263;-62
2023/02/27 09:14:29;;;;;;;4.10;1.77;;;15.20;59.00;;;;;;3925345;30;20058;-62
2023/02/27 09:17:10;;;;;;;4.57;1.60;;;15.20;59.20;;;;;;3921188;30;20078;-62
2023/02/27 09:19:51;;;;;;;;;;;15.20;59.30;;;;;;3925534;30;20086;-62
2023/02/27 09:22:32;;;;;;;5.15;1.77;;;15.10;59.60;;;;;;3926560;30;19933;-61
2023/02/27 09:25:13;;;;;;;5.37;1.67;;;15.10;59.70;;;;;;3926188;30;20153;-62
2023/02/27 09:27:54;;;;;;;5.55;1.58;;;15.10;59.70;;;;;;3924213;30;20301;-62
2023/02/27 09:30:37;;;;;;;5.43;1.20;;;15.10;59.70;;;;;;3925787;30;20145;-61
2023/02/27 09:33:17;;;;;;;4.20;1.50;;;15.10;59.60;;;;;;3925456;30;20540;-61
2023/02/27 09:35:58;;;;;;;3.73;1.83;;;15.10;59.50;;;;;;3922121;30;20190;-61
2023/02/27 09:38:39;;;;;;;6.78;1.40;;;15.20;59.00;;;;;;3922334;30;20181;-61
2023/02/27 09:41:27;;;;;;;;;;;15.20;59.30;;;;;;3924818;30;20059;-61
2023/02/27 09:44:21;;;;;;;2.85;1.35;;;15.20;59.00;;;;;;3925891;30;20064;-61
2023/02/27 09:47:23;;;;;;;5.32;1.52;;;15.10;59.00;;;;;;3925658;30;20102;-61
2023/02/27 09:50:06;;;;;;;3.08;0.90;;;15.10;59.30;;;;;;3924022;30;20051;-61
2023/02/27 09:52:47;;;;;;;3.35;1.02;;;15.10;59.30;;;;;;3915349;30;20138;-61
2023/02/27 09:55:32;;;;;;;3.95;0.98;;;15.10;58.70;;;;;;3922772;30;20062;-62
2023/02/27 09:58:29;;;;;;;2.38;1.05;;;15.20;59.10;;;;;;3920816;30;20511;-61
2023/02/27 10:01:15;;;;;;;3.78;0.95;;;15.20;59.20;;;;;;3913622;30;20964;-62
2023/02/27 10:04:31;;;;;;;2.63;0.73;;;15.20;58.60;;;;;;3925655;30;20495;-61
2023/02/27 10:07:19;;;;;;;1.02;0.50;;;15.20;56.00;;;;;;3921871;30;20063;-61
2023/02/27 10:10:19;;;;;;;2.00;0.75;;;15.10;56.30;;;;;;3911377;30;20136;-62
2023/02/27 10:13:17;;;;;;;2.40;0.90;;;15.10;55.50;;;;;;3924274;30;20238;-62
2023/02/27 10:16:01;;;;;;;2.22;0.85;;;15.00;55.30;;;;;;3917418;30;20092;-62
2023/02/27 10:18:52;;;;;;;2.60;1.05;;;14.90;56.50;;;;;;3925049;30;20063;-62
2023/02/27 10:21:39;;;;;;;0.98;0.98;;;14.90;55.80;;;;;;3921369;30;20133;-64
2023/02/27 10:24:26;;;;;;;4.20;0.60;;;14.80;54.70;;;;;;3924815;30;20071;-64
2023/02/27 10:27:14;;;;;;;2.17;0.95;;;14.80;55.60;;;;;;3913887;30;20158;-64
2023/02/27 10:30:09;;;;;;;1.23;0.65;;;14.80;55.20;;;;;;3923566;30;20180;-64
2023/02/27 10:33:02;;;;;;;7.03;0.68;;;14.70;55.00;;;;;;3924059;30;20059;-64
2023/02/27 10:35:44;;;;;;;2.90;0.80;;;14.70;53.80;;;;;;3917766;30;20067;-64
2023/02/27 10:38:33;;;;;;;2.40;0.60;;;14.70;53.90;;;;;;3912547;30;20067;-66
2023/02/27 10:41:16;;;;;;;4.32;1.60;;;14.70;54.60;;;;;;3913342;30;20059;-62
2023/02/27 10:43:59;;;;;;;0.57;0.55;;;14.70;54.40;;;;;;3925175;30;20104;-62
2023/02/27 10:46:41;;;;;;;3.30;0.80;;;14.60;54.30;;;;;;3924437;30;20067;-62
2023/02/27 10:49:22;;;;;;;;;;;14.60;53.50;;;;;;3918800;30;20077;-62
2023/02/27 10:52:09;;;;;;;1.60;0.50;;;14.60;53.40;;;;;;3924718;30;20607;-62
2023/02/27 10:54:52;;;;;;;2.90;0.90;;;14.50;53.40;;;;;;3918300;30;20416;-60
2023/02/27 10:57:42;;;;;;;2.25;0.63;;;14.60;52.50;;;;;;3910370;30;20064;-62
2023/02/27 11:00:28;;;;;;;2.83;0.45;;;14.60;52.50;;;;;;3903855;30;20063;-60
2023/02/27 11:03:19;;;;;;;5.18;0.80;;;14.70;53.10;;;;;;3918215;30;20137;-62
2023/02/27 11:06:01;;;;;;;;;;;14.70;52.50;;;;;;3917199;30;20436;-63
2023/02/27 11:08:43;;;;;;;1.25;0.75;;;14.80;52.80;;;;;;3924651;30;19941;-61
2023/02/27 11:11:28;;;;;;;1.40;0.60;;;14.80;53.60;;;;;;3918392;30;20059;-61
2023/02/27 11:14:26;;;;;;;2.63;0.65;;;14.70;54.00;;;;;;3924700;30;20058;-61
2023/02/27 11:17:22;;;;;;;2.60;0.63;;;14.70;52.30;;;;;;3911063;30;20059;-61
2023/02/27 11:20:05;;;;;;;1.73;0.50;;;14.70;54.10;;;;;;3923572;30;20063;-62
2023/02/27 11:23:04;;;;;;;2.03;0.50;;;14.70;54.70;;;;;;3914529;30;20105;-62
2023/02/27 11:25:47;;;;;;;2.17;0.50;;;14.80;55.50;;;;;;3919337;30;20483;-65
2023/02/27 11:28:30;;;;;;;0.60;0.50;;;14.90;54.70;;;;;;3919877;30;20063;-66
2023/02/27 11:31:20;;;;;;;1.95;0.60;;;15.00;55.10;;;;;;3919712;30;20060;-65
2023/02/27 11:34:03;;;;;;;1.23;0.50;;;15.00;54.50;;;;;;3918499;30;20412;-66
2023/02/27 11:36:47;;;;;;;0.65;0.40;;;15.00;54.00;;;;;;3918436;30;20145;-66
2023/02/27 11:39:33;;;;;;;1.70;0.60;;;14.90;53.80;;;;;;3913548;30;20182;-65
2023/02/27 11:42:17;;;;;;;1.33;0.47;;;14.90;53.50;;;;;;3914982;30;21024;-64
2023/02/27 11:45:02;;;;;;;1.65;0.77;;;14.80;53.30;;;;;;3915871;30;20059;-66
2023/02/27 11:47:50;;;;;;;2.53;0.63;;;14.70;52.40;;;;;;3918858;30;20063;-65
2023/02/27 11:50:54;;;;;;;1.98;0.50;;;14.70;53.10;;;;;;3910015;30;20052;-65
2023/02/27 11:53:49;;;;;;;1.02;0.47;;;14.60;52.10;;;;;;3910428;30;20064;-65
2023/02/27 11:56:33;;;;;;;1.20;0.40;;;14.50;50.90;;;;;;3921229;30;20285;-65
2023/02/27 11:59:32;;;;;;;1.27;0.60;;;14.40;53.00;;;;;;3923109;30;20075;-65
2023/02/27 12:02:22;;;;;;;3.58;0.93;;;14.40;50.90;;;;;;3921711;30;20074;-65
2023/02/27 12:05:12;;;;;;;2.00;0.68;;;14.30;50.80;;;;;;3918816;30;20067;-65
2023/02/27 12:07:59;;;;;;;1.25;0.70;;;14.20;50.40;;;;;;3916109;30;20206;-65
2023/02/27 12:10:48;;;;;;;1.05;0.40;;;14.10;50.90;;;;;;3923425;30;20074;-65
2023/02/27 12:13:31;;;;;;;2.50;0.50;;;14.10;51.20;;;;;;3923677;30;20059;-65
2023/02/27 12:16:19;;;;;;;1.40;0.60;;;14.00;50.70;;;;;;3922990;30;20528;-65
2023/02/27 12:19:08;;;;;;;1.15;0.68;;;14.00;52.50;;;;;;3913915;30;20112;-65
2023/02/27 12:21:54;;;;;;;3.25;0.65;;;14.10;53.10;;;;;;3923899;30;20621;-65
2023/02/27 12:24:41;;;;;;;1.02;0.60;;;14.20;53.50;;;;;;3912493;30;20059;-65
2023/02/27 12:27:28;;;;;;;1.17;0.32;;;14.30;52.90;;;;;;3920822;30;20055;-65
2023/02/27 12:30:16;;;;;;;2.28;0.65;;;14.40;53.90;;;;;;3909722;30;20059;-65
2023/02/27 12:33:03;;;;;;;2.00;0.50;;;14.40;52.90;;;;;;3909992;30;20420;-65
2023/02/27 12:35:50;;;;;;;1.50;0.57;;;14.50;52.90;;;;;;3923492;30;20063;-66
2023/02/27 12:38:32;;;;;;;0.70;0.43;;;14.60;52.30;;;;;;3922698;30;20086;-63
2023/02/27 12:41:35;;;;;;;0.38;0.30;;;14.60;52.60;;;;;;3919905;30;20204;-62
2023/02/27 12:44:40;;;;;;;1.98;0.50;;;14.60;52.20;;;;;;3914942;30;20067;-62
2023/02/27 12:47:29;;;;;;;1.08;0.68;;;14.60;51.50;;;;;;3918209;30;20117;-63
2023/02/27 12:50:15;;;;;;;0.93;0.68;;;14.70;52.00;;;;;;3922707;30;20428;-62
2023/02/27 12:53:15;;;;;;;1.17;0.70;;;14.70;51.90;;;;;;3923045;30;20075;-62
2023/02/27 12:56:01;;;;;;;2.22;0.65;;;14.70;51.50;;;;;;3916705;30;20059;-62
2023/02/27 12:58:56;;;;;;;1.40;0.60;;;14.80;51.80;;;;;;3923619;30;20063;-62
2023/02/27 13:01:44;;;;;;;0.60;0.47;;;14.80;51.70;;;;;;3920788;30;20086;-63
2023/02/27 13:04:33;;;;;;;1.42;0.55;;;14.80;51.90;;;;;;3922854;30;20074;-62
2023/02/27 13:07:24;;;;;;;0.75;0.57;;;14.80;51.80;;;;;;3915126;30;20412;-62
2023/02/27 13:10:13;;;;;;;2.45;0.60;;;14.90;52.00;;;;;;3918809;30;20098;-62
2023/02/27 13:13:00;;;;;;;1.67;0.60;;;14.90;51.50;;;;;;3921852;30;20067;-62
2023/02/27 13:15:47;;;;;;;2.45;0.60;;;15.00;51.90;;;;;;3925957;30;20059;-62
2023/02/27 13:18:35;;;;;;;4.35;0.68;;;15.00;51.80;;;;;;3918383;30;20059;-61
2023/02/27 13:21:24;;;;;;;0.85;0.30;;;15.00;51.60;;;;;;3923921;30;20128;-61
2023/02/27 13:24:19;;;;;;;2.08;0.73;;;15.10;51.40;;;;;;3923497;30;20132;-61
2023/02/27 13:27:12;;;;;;;2.40;0.60;;;15.10;52.20;;;;;;3917365;30;20233;-62
2023/02/27 13:30:07;;;;;;;0.75;0.52;;;15.10;51.80;;;;;;3921488;30;20067;-62
2023/02/27 13:32:58;;;;;;;1.40;0.60;;;15.10;51.40;;;;;;3923531;30;20064;-61
2023/02/27 13:35:49;;;;;;;1.95;0.60;;;15.10;51.60;;;;;;3915521;30;20354;-62
2023/02/27 13:38:41;;;;;;;1.15;0.60;;;15.00;52.70;;;;;;3917482;30;20210;-62
2023/02/27 13:41:38;;;;;;;1.13;0.65;;;14.90;51.10;;;;;;3919970;30;20063;-64
2023/02/27 13:44:45;;;;;;;2.03;0.35;;;14.90;52.00;;;;;;3922718;30;20055;-62
2023/02/27 13:47:48;;;;;;;1.20;0.47;;;14.80;51.90;;;;;;3917712;30;20062;-61
2023/02/27 13:50:51;;;;;;;1.92;0.70;;;14.80;51.60;;;;;;3924009;30;20178;-62
2023/02/27 13:53:32;;;;;;;1.08;0.50;;;14.70;52.70;;;;;;3920019;30;20571;-61
2023/02/27 13:56:20;;;;;;;0.82;0.60;;;14.60;52.60;;;;;;3925487;30;20051;-61
2023/02/27 14:08:32;;;;;;;2.22;0.60;;;14.40;51.90;;;;;;4089120;24;20051;-72
2023/02/27 14:11:22;;;;;;;2.47;0.50;;;14.30;51.90;;;;;;3938775;30;20144;-72
2023/02/27 14:14:08;;;;;;;1.33;0.50;;;14.30;51.30;;;;;;3921092;30;20207;-72
2023/02/27 14:17:03;;;;;;;1.40;0.50;;;14.20;51.40;;;;;;3934512;30;20501;-72
2023/02/27 14:19:49;;;;;;;1.75;0.50;;;14.10;50.80;;;;;;3932239;30;20246;-72
2023/02/27 14:22:39;;;;;;;2.05;0.68;;;14.10;51.40;;;;;;3931975;30;20078;-65
2023/02/27 14:25:33;;;;;;;0.98;0.50;;;14.10;52.40;;;;;;3933396;30;20503;-65
2023/02/27 14:28:22;;;;;;;1.52;0.43;;;14.00;52.80;;;;;;3927499;30;20067;-65
2023/02/27 14:31:05;;;;;;;1.25;0.47;;;13.90;52.70;;;;;;3940071;30;20058;-65
2023/02/27 14:33:49;;;;;;;1.88;0.47;;;13.90;52.80;;;;;;3931566;30;20106;-65
2023/02/27 14:36:33;;;;;;;2.75;0.45;;;13.90;52.30;;;;;;3928468;30;20056;-64
2023/02/27 14:39:22;;;;;;;0.60;0.40;;;13.80;52.40;;;;;;3915027;30;20153;-65